sensor_id;sensor_type;location;lat;lon;timestamp;P1;durP1;ratioP1;P2;durP2;ratioP2
61397;SDS011;47267;48.130;-2.040;2023-01-09T00:00:51;6.00;;;2.00;;
61397;SDS011;47267;48.130;-2.040;2023-01-09T00:03:16;4.90;;;1.88;;
61397;SDS011;47267;48.130;-2.040;2023-01-09T00:05:42;4.20;;;2.00;;
61397;SDS011;47267;48.130;-2.040;2023-01-09T00:08:08;4.75;;;1.42;;
61397;SDS011;47267;48.130;-2.040;2023-01-09T00:10:34;4.55;;;1.70;;
61397;SDS011;47267;48.130;-2.040;2023-01-09T00:12:59;6.00;;;1.80;;
61397;SDS011;47267;48.130;-2.040;2023-01-09T00:15:25;5.03;;;1.77;;
61397;SDS011;47267;48.130;-2.040;2023-01-09T00:17:51;5.35;;;1.73;;
61397;SDS011;47267;48.130;-2.040;2023-01-09T00:20:16;3.97;;;1.73;;
61397;SDS011;47267;48.130;-2.040;2023-01-09T00:22:42;4.20;;;1.45;;
61397;SDS011;47267;48.130;-2.040;2023-01-09T00:25:08;4.45;;;1.55;;
61397;SDS011;47267;48.130;-2.040;2023-01-09T00:27:34;4.07;;;1.60;;
61397;SDS011;47267;48.130;-2.040;2023-01-09T00:30:00;4.70;;;1.67;;
61397;SDS011;47267;48.130;-2.040;2023-01-09T00:32:26;3.90;;;1.75;;
61397;SDS011;47267;48.130;-2.040;2023-01-09T00:34:52;5.22;;;1.70;;
61397;SDS011;47267;48.130;-2.040;2023-01-09T00:37:19;4.78;;;1.92;;
61397;SDS011;47267;48.130;-2.040;2023-01-09T00:39:45;4.13;;;1.67;;
61397;SDS011;47267;48.130;-2.040;2023-01-09T00:42:15;5.53;;;1.70;;
61397;SDS011;47267;48.130;-2.040;2023-01-09T00:44:47;5.35;;;1.50;;
61397;SDS011;47267;48.130;-2.040;2023-01-09T00:47:17;6.78;;;1.77;;
61397;SDS011;47267;48.130;-2.040;2023-01-09T00:49:51;5.05;;;1.70;;
61397;SDS011;47267;48.130;-2.040;2023-01-09T00:52:18;4.15;;;1.48;;
61397;SDS011;47267;48.130;-2.040;2023-01-09T00:54:45;3.65;;;1.40;;
61397;SDS011;47267;48.130;-2.040;2023-01-09T00:57:11;4.95;;;1.52;;
61397;SDS011;47267;48.130;-2.040;2023-01-09T00:59:38;4.25;;;1.40;;
61397;SDS011;47267;48.130;-2.040;2023-01-09T01:02:05;3.22;;;1.40;;
61397;SDS011;47267;48.130;-2.040;2023-01-09T01:04:31;4.22;;;1.70;;
61397;SDS011;47267;48.130;-2.040;2023-01-09T01:07:15;3.83;;;1.40;;
61397;SDS011;47267;48.130;-2.040;2023-01-09T01:10:00;3.25;;;1.20;;
61397;SDS011;47267;48.130;-2.040;2023-01-09T01:12:25;3.63;;;1.33;;
61397;SDS011;47267;48.130;-2.040;2023-01-09T01:14:51;5.07;;;1.60;;
61397;SDS011;47267;48.130;-2.040;2023-01-09T01:17:17;3.45;;;1.35;;
61397;SDS011;47267;48.130;-2.040;2023-01-09T01:19:43;3.83;;;1.38;;
61397;SDS011;47267;48.130;-2.040;2023-01-09T01:22:09;3.33;;;1.25;;
61397;SDS011;47267;48.130;-2.040;2023-01-09T01:24:34;2.63;;;1.10;;
61397;SDS011;47267;48.130;-2.040;2023-01-09T01:27:00;2.90;;;1.20;;
61397;SDS011;47267;48.130;-2.040;2023-01-09T01:29:26;3.13;;;1.33;;
61397;SDS011;47267;48.130;-2.040;2023-01-09T01:31:52;4.65;;;1.63;;
61397;SDS011;47267;48.130;-2.040;2023-01-09T01:34:18;2.72;;;1.27;;
61397;SDS011;47267;48.130;-2.040;2023-01-09T01:36:44;3.92;;;1.35;;
61397;SDS011;47267;48.130;-2.040;2023-01-09T01:39:09;4.40;;;1.45;;
61397;SDS011;47267;48.130;-2.040;2023-01-09T01:41:36;4.70;;;1.33;;
61397;SDS011;47267;48.130;-2.040;2023-01-09T01:44:06;4.25;;;1.25;;
61397;SDS011;47267;48.130;-2.040;2023-01-09T01:47:09;2.63;;;1.13;;
61397;SDS011;47267;48.130;-2.040;2023-01-09T01:49:35;3.42;;;1.20;;
61397;SDS011;47267;48.130;-2.040;2023-01-09T01:52:01;3.15;;;1.17;;
61397;SDS011;47267;48.130;-2.040;2023-01-09T01:54:27;2.60;;;1.08;;
61397;SDS011;47267;48.130;-2.040;2023-01-09T01:56:55;3.55;;;1.13;;
61397;SDS011;47267;48.130;-2.040;2023-01-09T01:59:26;2.50;;;1.00;;
61397;SDS011;47267;48.130;-2.040;2023-01-09T02:01:57;2.35;;;0.85;;
61397;SDS011;47267;48.130;-2.040;2023-01-09T02:04:24;2.22;;;0.98;;
61397;SDS011;47267;48.130;-2.040;2023-01-09T02:06:52;3.10;;;1.02;;
61397;SDS011;47267;48.130;-2.040;2023-01-09T02:09:19;4.32;;;1.15;;
61397;SDS011;47267;48.130;-2.040;2023-01-09T02:14:21;1.98;;;0.90;;
61397;SDS011;47267;48.130;-2.040;2023-01-09T02:22:09;3.58;;;0.90;;
61397;SDS011;47267;48.130;-2.040;2023-01-09T02:24:45;3.10;;;1.00;;
61397;SDS011;47267;48.130;-2.040;2023-01-09T02:27:42;3.75;;;1.38;;
61397;SDS011;47267;48.130;-2.040;2023-01-09T02:30:38;4.53;;;1.08;;
61397;SDS011;47267;48.130;-2.040;2023-01-09T02:38:31;2.33;;;1.00;;
61397;SDS011;47267;48.130;-2.040;2023-01-09T02:41:18;2.35;;;0.85;;
61397;SDS011;47267;48.130;-2.040;2023-01-09T02:44:01;2.00;;;0.88;;
61397;SDS011;47267;48.130;-2.040;2023-01-09T02:46:36;2.55;;;1.10;;
61397;SDS011;47267;48.130;-2.040;2023-01-09T02:49:02;3.72;;;1.45;;
61397;SDS011;47267;48.130;-2.040;2023-01-09T02:54:01;2.42;;;0.93;;
61397;SDS011;47267;48.130;-2.040;2023-01-09T02:57:03;2.45;;;0.80;;
61397;SDS011;47267;48.130;-2.040;2023-01-09T02:59:28;2.05;;;1.00;;
61397;SDS011;47267;48.130;-2.040;2023-01-09T03:05:02;1.80;;;0.85;;
61397;SDS011;47267;48.130;-2.040;2023-01-09T03:13:08;2.45;;;0.90;;
61397;SDS011;47267;48.130;-2.040;2023-01-09T03:15:37;2.92;;;1.05;;
61397;SDS011;47267;48.130;-2.040;2023-01-09T03:18:06;2.25;;;0.90;;
61397;SDS011;47267;48.130;-2.040;2023-01-09T03:20:34;3.95;;;1.20;;
61397;SDS011;47267;48.130;-2.040;2023-01-09T03:23:03;2.70;;;0.93;;
61397;SDS011;47267;48.130;-2.040;2023-01-09T03:25:30;1.58;;;0.88;;
61397;SDS011;47267;48.130;-2.040;2023-01-09T03:27:57;2.33;;;1.10;;
61397;SDS011;47267;48.130;-2.040;2023-01-09T03:30:27;2.38;;;0.93;;
61397;SDS011;47267;48.130;-2.040;2023-01-09T03:32:55;2.97;;;0.85;;
61397;SDS011;47267;48.130;-2.040;2023-01-09T03:35:21;2.60;;;0.95;;
61397;SDS011;47267;48.130;-2.040;2023-01-09T03:37:47;3.45;;;0.90;;
61397;SDS011;47267;48.130;-2.040;2023-01-09T03:40:13;1.98;;;0.80;;
61397;SDS011;47267;48.130;-2.040;2023-01-09T03:42:39;2.10;;;0.70;;
61397;SDS011;47267;48.130;-2.040;2023-01-09T03:45:05;1.90;;;0.65;;
61397;SDS011;47267;48.130;-2.040;2023-01-09T03:47:31;3.40;;;0.90;;
61397;SDS011;47267;48.130;-2.040;2023-01-09T03:49:57;2.38;;;0.98;;
61397;SDS011;47267;48.130;-2.040;2023-01-09T03:52:22;1.83;;;0.82;;
61397;SDS011;47267;48.130;-2.040;2023-01-09T03:54:48;4.05;;;0.98;;
61397;SDS011;47267;48.130;-2.040;2023-01-09T03:57:14;1.85;;;0.85;;
61397;SDS011;47267;48.130;-2.040;2023-01-09T03:59:39;3.08;;;0.90;;
61397;SDS011;47267;48.130;-2.040;2023-01-09T04:02:05;2.78;;;0.88;;
61397;SDS011;47267;48.130;-2.040;2023-01-09T04:04:31;2.42;;;0.98;;
61397;SDS011;47267;48.130;-2.040;2023-01-09T04:06:57;2.80;;;0.88;;
61397;SDS011;47267;48.130;-2.040;2023-01-09T04:09:22;2.38;;;0.90;;
61397;SDS011;47267;48.130;-2.040;2023-01-09T04:11:48;3.20;;;0.80;;
61397;SDS011;47267;48.130;-2.040;2023-01-09T04:14:14;3.40;;;0.90;;
61397;SDS011;47267;48.130;-2.040;2023-01-09T04:16:40;3.40;;;0.80;;
61397;SDS011;47267;48.130;-2.040;2023-01-09T04:19:06;1.95;;;0.70;;
61397;SDS011;47267;48.130;-2.040;2023-01-09T04:21:32;2.90;;;0.82;;
61397;SDS011;47267;48.130;-2.040;2023-01-09T04:23:57;2.50;;;0.98;;
61397;SDS011;47267;48.130;-2.040;2023-01-09T04:26:23;2.47;;;1.00;;
61397;SDS011;47267;48.130;-2.040;2023-01-09T04:28:49;2.42;;;0.73;;
61397;SDS011;47267;48.130;-2.040;2023-01-09T04:31:14;2.50;;;0.80;;
61397;SDS011;47267;48.130;-2.040;2023-01-09T04:33:40;2.20;;;0.80;;
61397;SDS011;47267;48.130;-2.040;2023-01-09T04:36:06;2.67;;;0.80;;
61397;SDS011;47267;48.130;-2.040;2023-01-09T04:38:32;1.98;;;0.77;;
61397;SDS011;47267;48.130;-2.040;2023-01-09T04:40:57;1.73;;;0.65;;
61397;SDS011;47267;48.130;-2.040;2023-01-09T04:43:23;3.30;;;0.90;;
61397;SDS011;47267;48.130;-2.040;2023-01-09T04:45:49;3.47;;;0.80;;
61397;SDS011;47267;48.130;-2.040;2023-01-09T04:48:15;2.42;;;0.80;;
61397;SDS011;47267;48.130;-2.040;2023-01-09T04:50:41;2.38;;;0.80;;
61397;SDS011;47267;48.130;-2.040;2023-01-09T04:53:06;1.75;;;0.88;;
61397;SDS011;47267;48.130;-2.040;2023-01-09T04:55:32;1.83;;;0.90;;
61397;SDS011;47267;48.130;-2.040;2023-01-09T04:57:58;2.53;;;0.80;;
61397;SDS011;47267;48.130;-2.040;2023-01-09T05:00:24;2.08;;;0.70;;
61397;SDS011;47267;48.130;-2.040;2023-01-09T05:02:49;2.58;;;0.90;;
61397;SDS011;47267;48.130;-2.040;2023-01-09T05:05:15;3.20;;;0.95;;
61397;SDS011;47267;48.130;-2.040;2023-01-09T05:07:41;2.72;;;0.95;;
61397;SDS011;47267;48.130;-2.040;2023-01-09T05:10:07;2.80;;;0.90;;
61397;SDS011;47267;48.130;-2.040;2023-01-09T05:12:34;2.88;;;0.88;;
61397;SDS011;47267;48.130;-2.040;2023-01-09T05:15:00;1.63;;;0.82;;
61397;SDS011;47267;48.130;-2.040;2023-01-09T05:17:27;2.80;;;0.75;;
61397;SDS011;47267;48.130;-2.040;2023-01-09T05:19:53;2.95;;;0.70;;
61397;SDS011;47267;48.130;-2.040;2023-01-09T05:22:19;3.00;;;0.80;;
61397;SDS011;47267;48.130;-2.040;2023-01-09T05:24:44;1.77;;;0.80;;
61397;SDS011;47267;48.130;-2.040;2023-01-09T05:27:10;2.35;;;0.75;;
61397;SDS011;47267;48.130;-2.040;2023-01-09T05:29:36;1.88;;;0.73;;
61397;SDS011;47267;48.130;-2.040;2023-01-09T05:32:01;2.80;;;0.80;;
61397;SDS011;47267;48.130;-2.040;2023-01-09T05:34:27;1.88;;;0.75;;
61397;SDS011;47267;48.130;-2.040;2023-01-09T05:36:53;2.78;;;0.93;;
61397;SDS011;47267;48.130;-2.040;2023-01-09T05:39:19;1.33;;;0.50;;
61397;SDS011;47267;48.130;-2.040;2023-01-09T05:41:44;3.03;;;0.90;;
61397;SDS011;47267;48.130;-2.040;2023-01-09T05:44:10;2.15;;;0.77;;
61397;SDS011;47267;48.130;-2.040;2023-01-09T05:46:36;2.13;;;0.70;;
61397;SDS011;47267;48.130;-2.040;2023-01-09T05:49:01;2.92;;;0.80;;
61397;SDS011;47267;48.130;-2.040;2023-01-09T05:51:27;3.28;;;1.00;;
61397;SDS011;47267;48.130;-2.040;2023-01-09T05:53:55;2.67;;;0.80;;
61397;SDS011;47267;48.130;-2.040;2023-01-09T05:56:21;3.95;;;0.95;;
61397;SDS011;47267;48.130;-2.040;2023-01-09T05:58:47;1.52;;;0.40;;
61397;SDS011;47267;48.130;-2.040;2023-01-09T06:01:13;2.35;;;0.77;;
61397;SDS011;47267;48.130;-2.040;2023-01-09T06:03:38;3.33;;;0.95;;
61397;SDS011;47267;48.130;-2.040;2023-01-09T06:06:04;2.33;;;0.80;;
61397;SDS011;47267;48.130;-2.040;2023-01-09T06:08:30;2.60;;;0.80;;
61397;SDS011;47267;48.130;-2.040;2023-01-09T06:10:56;2.50;;;0.90;;
61397;SDS011;47267;48.130;-2.040;2023-01-09T06:13:21;2.30;;;0.60;;
61397;SDS011;47267;48.130;-2.040;2023-01-09T06:15:47;1.38;;;0.70;;
61397;SDS011;47267;48.130;-2.040;2023-01-09T06:18:13;1.40;;;0.55;;
61397;SDS011;47267;48.130;-2.040;2023-01-09T06:20:39;1.95;;;0.80;;
61397;SDS011;47267;48.130;-2.040;2023-01-09T06:23:04;2.22;;;0.85;;
61397;SDS011;47267;48.130;-2.040;2023-01-09T06:25:30;1.88;;;0.70;;
61397;SDS011;47267;48.130;-2.040;2023-01-09T06:27:56;2.67;;;0.80;;
61397;SDS011;47267;48.130;-2.040;2023-01-09T06:30:21;2.80;;;0.90;;
61397;SDS011;47267;48.130;-2.040;2023-01-09T06:32:48;2.63;;;0.80;;
61397;SDS011;47267;48.130;-2.040;2023-01-09T06:35:14;1.80;;;0.50;;
61397;SDS011;47267;48.130;-2.040;2023-01-09T06:37:44;2.73;;;0.90;;
61397;SDS011;47267;48.130;-2.040;2023-01-09T06:40:13;3.03;;;0.60;;
61397;SDS011;47267;48.130;-2.040;2023-01-09T06:42:43;2.13;;;0.80;;
61397;SDS011;47267;48.130;-2.040;2023-01-09T06:45:09;3.25;;;0.70;;
61397;SDS011;47267;48.130;-2.040;2023-01-09T06:47:36;1.45;;;0.55;;
61397;SDS011;47267;48.130;-2.040;2023-01-09T06:50:01;2.38;;;0.75;;
61397;SDS011;47267;48.130;-2.040;2023-01-09T06:52:27;1.65;;;0.68;;
61397;SDS011;47267;48.130;-2.040;2023-01-09T06:54:53;2.50;;;0.60;;
61397;SDS011;47267;48.130;-2.040;2023-01-09T06:57:18;2.83;;;0.60;;
61397;SDS011;47267;48.130;-2.040;2023-01-09T06:59:44;3.28;;;0.90;;
61397;SDS011;47267;48.130;-2.040;2023-01-09T07:02:17;3.33;;;0.80;;
61397;SDS011;47267;48.130;-2.040;2023-01-09T07:04:44;2.50;;;0.70;;
61397;SDS011;47267;48.130;-2.040;2023-01-09T07:07:09;2.40;;;0.80;;
61397;SDS011;47267;48.130;-2.040;2023-01-09T07:09:35;2.13;;;0.98;;
61397;SDS011;47267;48.130;-2.040;2023-01-09T07:12:01;2.92;;;0.80;;
61397;SDS011;47267;48.130;-2.040;2023-01-09T07:14:26;2.58;;;0.90;;
61397;SDS011;47267;48.130;-2.040;2023-01-09T07:16:52;2.78;;;0.98;;
61397;SDS011;47267;48.130;-2.040;2023-01-09T07:19:17;4.13;;;1.10;;
61397;SDS011;47267;48.130;-2.040;2023-01-09T07:21:43;3.20;;;1.00;;
61397;SDS011;47267;48.130;-2.040;2023-01-09T07:24:09;3.63;;;1.08;;
61397;SDS011;47267;48.130;-2.040;2023-01-09T07:26:35;4.90;;;1.27;;
61397;SDS011;47267;48.130;-2.040;2023-01-09T07:29:00;3.15;;;0.80;;
61397;SDS011;47267;48.130;-2.040;2023-01-09T07:31:26;4.05;;;0.95;;
61397;SDS011;47267;48.130;-2.040;2023-01-09T07:33:52;5.45;;;1.13;;
61397;SDS011;47267;48.130;-2.040;2023-01-09T07:36:17;4.80;;;1.20;;
61397;SDS011;47267;48.130;-2.040;2023-01-09T07:38:43;4.88;;;0.98;;
61397;SDS011;47267;48.130;-2.040;2023-01-09T07:41:09;5.45;;;1.13;;
61397;SDS011;47267;48.130;-2.040;2023-01-09T07:43:35;5.88;;;1.02;;
61397;SDS011;47267;48.130;-2.040;2023-01-09T07:46:02;2.42;;;1.05;;
61397;SDS011;47267;48.130;-2.040;2023-01-09T07:48:28;1.88;;;0.80;;
61397;SDS011;47267;48.130;-2.040;2023-01-09T07:50:54;3.65;;;1.30;;
61397;SDS011;47267;48.130;-2.040;2023-01-09T07:53:20;4.60;;;1.40;;
61397;SDS011;47267;48.130;-2.040;2023-01-09T07:55:47;4.65;;;1.40;;
61397;SDS011;47267;48.130;-2.040;2023-01-09T07:58:13;2.15;;;1.05;;
61397;SDS011;47267;48.130;-2.040;2023-01-09T08:00:38;6.55;;;1.50;;
61397;SDS011;47267;48.130;-2.040;2023-01-09T08:03:04;5.03;;;1.05;;
61397;SDS011;47267;48.130;-2.040;2023-01-09T08:05:30;4.60;;;1.30;;
61397;SDS011;47267;48.130;-2.040;2023-01-09T08:07:55;5.25;;;1.20;;
61397;SDS011;47267;48.130;-2.040;2023-01-09T08:10:21;5.40;;;1.20;;
61397;SDS011;47267;48.130;-2.040;2023-01-09T08:12:47;4.40;;;1.33;;
61397;SDS011;47267;48.130;-2.040;2023-01-09T08:15:13;4.75;;;1.30;;
61397;SDS011;47267;48.130;-2.040;2023-01-09T08:17:40;5.60;;;1.13;;
61397;SDS011;47267;48.130;-2.040;2023-01-09T08:20:08;3.85;;;0.90;;
61397;SDS011;47267;48.130;-2.040;2023-01-09T08:22:39;3.72;;;1.08;;
61397;SDS011;47267;48.130;-2.040;2023-01-09T08:25:05;4.55;;;1.20;;
61397;SDS011;47267;48.130;-2.040;2023-01-09T08:27:32;4.88;;;1.23;;
61397;SDS011;47267;48.130;-2.040;2023-01-09T08:29:58;6.18;;;1.13;;
61397;SDS011;47267;48.130;-2.040;2023-01-09T08:32:23;4.72;;;1.63;;
61397;SDS011;47267;48.130;-2.040;2023-01-09T08:34:50;3.42;;;1.20;;
61397;SDS011;47267;48.130;-2.040;2023-01-09T08:37:16;4.68;;;1.35;;
61397;SDS011;47267;48.130;-2.040;2023-01-09T08:39:42;3.53;;;1.00;;
61397;SDS011;47267;48.130;-2.040;2023-01-09T08:42:08;4.22;;;1.15;;
61397;SDS011;47267;48.130;-2.040;2023-01-09T08:44:52;3.45;;;0.90;;
61397;SDS011;47267;48.130;-2.040;2023-01-09T08:47:36;4.72;;;1.20;;
61397;SDS011;47267;48.130;-2.040;2023-01-09T08:50:02;4.88;;;1.20;;
61397;SDS011;47267;48.130;-2.040;2023-01-09T08:52:28;5.22;;;1.35;;
61397;SDS011;47267;48.130;-2.040;2023-01-09T08:54:54;3.83;;;1.27;;
61397;SDS011;47267;48.130;-2.040;2023-01-09T08:57:20;3.33;;;1.05;;
61397;SDS011;47267;48.130;-2.040;2023-01-09T08:59:46;4.63;;;1.30;;
61397;SDS011;47267;48.130;-2.040;2023-01-09T09:02:12;3.40;;;1.10;;
61397;SDS011;47267;48.130;-2.040;2023-01-09T09:04:38;4.45;;;0.90;;
61397;SDS011;47267;48.130;-2.040;2023-01-09T09:07:03;2.95;;;1.33;;
61397;SDS011;47267;48.130;-2.040;2023-01-09T09:09:29;3.33;;;1.02;;
61397;SDS011;47267;48.130;-2.040;2023-01-09T09:11:54;4.00;;;1.20;;
61397;SDS011;47267;48.130;-2.040;2023-01-09T09:14:20;4.43;;;1.20;;
61397;SDS011;47267;48.130;-2.040;2023-01-09T09:17:04;2.53;;;0.90;;
61397;SDS011;47267;48.130;-2.040;2023-01-09T09:19:30;3.70;;;1.13;;
61397;SDS011;47267;48.130;-2.040;2023-01-09T09:21:56;2.33;;;0.90;;
61397;SDS011;47267;48.130;-2.040;2023-01-09T09:24:21;6.22;;;1.58;;
61397;SDS011;47267;48.130;-2.040;2023-01-09T09:26:47;4.15;;;0.95;;
61397;SDS011;47267;48.130;-2.040;2023-01-09T09:29:12;3.97;;;1.30;;
61397;SDS011;47267;48.130;-2.040;2023-01-09T09:31:38;5.60;;;1.20;;
61397;SDS011;47267;48.130;-2.040;2023-01-09T09:34:04;5.22;;;1.15;;
61397;SDS011;47267;48.130;-2.040;2023-01-09T09:36:31;3.88;;;1.38;;
61397;SDS011;47267;48.130;-2.040;2023-01-09T09:38:56;5.50;;;1.20;;
61397;SDS011;47267;48.130;-2.040;2023-01-09T09:44:17;2.78;;;0.85;;
61397;SDS011;47267;48.130;-2.040;2023-01-09T09:49:43;4.55;;;1.00;;
61397;SDS011;47267;48.130;-2.040;2023-01-09T09:52:19;4.13;;;1.17;;
61397;SDS011;47267;48.130;-2.040;2023-01-09T09:55:04;3.05;;;1.02;;
61397;SDS011;47267;48.130;-2.040;2023-01-09T10:00:13;3.78;;;1.27;;
61397;SDS011;47267;48.130;-2.040;2023-01-09T10:02:48;2.65;;;0.90;;
61397;SDS011;47267;48.130;-2.040;2023-01-09T10:05:23;2.75;;;0.93;;
61397;SDS011;47267;48.130;-2.040;2023-01-09T10:12:57;3.75;;;0.80;;
61397;SDS011;47267;48.130;-2.040;2023-01-09T10:26:10;3.65;;;1.23;;
61397;SDS011;47267;48.130;-2.040;2023-01-09T10:28:54;4.35;;;0.90;;
61397;SDS011;47267;48.130;-2.040;2023-01-09T10:34:05;5.80;;;0.80;;
61397;SDS011;47267;48.130;-2.040;2023-01-09T10:44:30;3.78;;;1.20;;
61397;SDS011;47267;48.130;-2.040;2023-01-09T10:47:08;4.53;;;1.10;;
61397;SDS011;47267;48.130;-2.040;2023-01-09T10:49:40;2.42;;;0.77;;
61397;SDS011;47267;48.130;-2.040;2023-01-09T10:52:16;2.15;;;1.00;;
61397;SDS011;47267;48.130;-2.040;2023-01-09T10:54:50;4.05;;;1.00;;
61397;SDS011;47267;48.130;-2.040;2023-01-09T10:59:52;1.85;;;0.50;;
61397;SDS011;47267;48.130;-2.040;2023-01-09T11:02:26;3.03;;;0.88;;
61397;SDS011;47267;48.130;-2.040;2023-01-09T11:04:55;2.05;;;0.80;;
61397;SDS011;47267;48.130;-2.040;2023-01-09T11:07:22;4.13;;;1.10;;
61397;SDS011;47267;48.130;-2.040;2023-01-09T11:09:54;2.88;;;1.00;;
61397;SDS011;47267;48.130;-2.040;2023-01-09T11:12:22;3.45;;;0.98;;
61397;SDS011;47267;48.130;-2.040;2023-01-09T11:14:52;2.83;;;1.10;;
61397;SDS011;47267;48.130;-2.040;2023-01-09T11:17:20;3.83;;;1.00;;
61397;SDS011;47267;48.130;-2.040;2023-01-09T11:19:59;3.13;;;1.00;;
61397;SDS011;47267;48.130;-2.040;2023-01-09T11:22:40;5.53;;;1.23;;
61397;SDS011;47267;48.130;-2.040;2023-01-09T11:25:10;2.65;;;0.70;;
61397;SDS011;47267;48.130;-2.040;2023-01-09T11:27:37;3.45;;;0.75;;
61397;SDS011;47267;48.130;-2.040;2023-01-09T11:32:44;1.85;;;0.88;;
61397;SDS011;47267;48.130;-2.040;2023-01-09T11:35:14;2.45;;;0.88;;
61397;SDS011;47267;48.130;-2.040;2023-01-09T11:37:43;4.60;;;1.10;;
61397;SDS011;47267;48.130;-2.040;2023-01-09T11:40:20;3.47;;;0.93;;
61397;SDS011;47267;48.130;-2.040;2023-01-09T11:43:02;3.10;;;1.33;;
61397;SDS011;47267;48.130;-2.040;2023-01-09T11:45:44;2.55;;;0.75;;
61397;SDS011;47267;48.130;-2.040;2023-01-09T11:48:29;4.68;;;1.35;;
61397;SDS011;47267;48.130;-2.040;2023-01-09T11:50:58;2.95;;;0.90;;
61397;SDS011;47267;48.130;-2.040;2023-01-09T11:53:25;3.42;;;0.80;;
61397;SDS011;47267;48.130;-2.040;2023-01-09T11:55:56;2.42;;;0.90;;
61397;SDS011;47267;48.130;-2.040;2023-01-09T11:58:27;3.97;;;1.10;;
61397;SDS011;47267;48.130;-2.040;2023-01-09T12:04:02;4.93;;;1.00;;
61397;SDS011;47267;48.130;-2.040;2023-01-09T12:20:29;3.83;;;1.40;;
61397;SDS011;47267;48.130;-2.040;2023-01-09T12:25:57;3.58;;;1.30;;
61397;SDS011;47267;48.130;-2.040;2023-01-09T12:31:45;4.47;;;1.00;;
61397;SDS011;47267;48.130;-2.040;2023-01-09T12:45:14;5.97;;;1.20;;
61397;SDS011;47267;48.130;-2.040;2023-01-09T12:48:23;5.55;;;1.20;;
61397;SDS011;47267;48.130;-2.040;2023-01-09T12:56:35;7.88;;;1.60;;
61397;SDS011;47267;48.130;-2.040;2023-01-09T13:01:54;4.35;;;1.17;;
61397;SDS011;47267;48.130;-2.040;2023-01-09T13:04:34;3.50;;;1.05;;
61397;SDS011;47267;48.130;-2.040;2023-01-09T13:07:12;7.35;;;1.48;;
61397;SDS011;47267;48.130;-2.040;2023-01-09T13:09:52;4.68;;;1.08;;
61397;SDS011;47267;48.130;-2.040;2023-01-09T13:12:18;6.22;;;1.35;;
61397;SDS011;47267;48.130;-2.040;2023-01-09T13:17:42;3.53;;;1.17;;
61397;SDS011;47267;48.130;-2.040;2023-01-09T13:20:20;5.05;;;1.33;;
61397;SDS011;47267;48.130;-2.040;2023-01-09T13:22:50;4.63;;;1.50;;
61397;SDS011;47267;48.130;-2.040;2023-01-09T13:25:31;7.68;;;1.20;;
61397;SDS011;47267;48.130;-2.040;2023-01-09T13:28:27;3.83;;;1.10;;
61397;SDS011;47267;48.130;-2.040;2023-01-09T13:33:35;3.92;;;1.40;;
61397;SDS011;47267;48.130;-2.040;2023-01-09T13:36:04;3.17;;;0.93;;
61397;SDS011;47267;48.130;-2.040;2023-01-09T13:38:31;3.70;;;1.17;;
61397;SDS011;47267;48.130;-2.040;2023-01-09T13:43:55;7.13;;;1.13;;
61397;SDS011;47267;48.130;-2.040;2023-01-09T13:46:30;5.00;;;1.30;;
61397;SDS011;47267;48.130;-2.040;2023-01-09T13:49:01;5.10;;;1.10;;
61397;SDS011;47267;48.130;-2.040;2023-01-09T13:51:34;3.22;;;1.00;;
61397;SDS011;47267;48.130;-2.040;2023-01-09T13:54:07;4.20;;;1.08;;
61397;SDS011;47267;48.130;-2.040;2023-01-09T13:59:37;2.55;;;0.85;;
61397;SDS011;47267;48.130;-2.040;2023-01-09T14:02:02;4.38;;;0.95;;
61397;SDS011;47267;48.130;-2.040;2023-01-09T14:04:48;3.40;;;0.93;;
61397;SDS011;47267;48.130;-2.040;2023-01-09T14:13:23;3.78;;;0.93;;
61397;SDS011;47267;48.130;-2.040;2023-01-09T14:16:20;3.28;;;0.93;;
61397;SDS011;47267;48.130;-2.040;2023-01-09T14:19:34;4.57;;;1.02;;
61397;SDS011;47267;48.130;-2.040;2023-01-09T14:21:44;3.60;;;0.90;;
61397;SDS011;47267;48.130;-2.040;2023-01-09T14:24:18;2.92;;;0.80;;
61397;SDS011;47267;48.130;-2.040;2023-01-09T14:26:48;2.95;;;0.90;;
61397;SDS011;47267;48.130;-2.040;2023-01-09T14:34:47;3.33;;;0.93;;
61397;SDS011;47267;48.130;-2.040;2023-01-09T14:37:35;4.75;;;1.00;;
61397;SDS011;47267;48.130;-2.040;2023-01-09T14:40:02;3.35;;;0.93;;
61397;SDS011;47267;48.130;-2.040;2023-01-09T14:42:34;4.30;;;0.90;;
61397;SDS011;47267;48.130;-2.040;2023-01-09T14:50:11;3.38;;;0.80;;
61397;SDS011;47267;48.130;-2.040;2023-01-09T14:58:09;2.83;;;0.85;;
61397;SDS011;47267;48.130;-2.040;2023-01-09T15:00:51;3.67;;;1.20;;
61397;SDS011;47267;48.130;-2.040;2023-01-09T15:03:27;3.53;;;1.10;;
61397;SDS011;47267;48.130;-2.040;2023-01-09T15:05:57;3.95;;;0.93;;
61397;SDS011;47267;48.130;-2.040;2023-01-09T15:08:24;3.05;;;0.90;;
61397;SDS011;47267;48.130;-2.040;2023-01-09T15:10:52;2.80;;;0.90;;
61397;SDS011;47267;48.130;-2.040;2023-01-09T15:13:24;3.67;;;1.13;;
61397;SDS011;47267;48.130;-2.040;2023-01-09T15:15:53;4.07;;;1.08;;
61397;SDS011;47267;48.130;-2.040;2023-01-09T15:18:23;3.05;;;0.90;;
61397;SDS011;47267;48.130;-2.040;2023-01-09T15:20:58;3.08;;;1.40;;
61397;SDS011;47267;48.130;-2.040;2023-01-09T15:23:26;2.70;;;0.80;;
61397;SDS011;47267;48.130;-2.040;2023-01-09T15:25:54;2.53;;;0.90;;
61397;SDS011;47267;48.130;-2.040;2023-01-09T15:30:53;3.45;;;0.95;;
61397;SDS011;47267;48.130;-2.040;2023-01-09T15:33:24;4.25;;;0.80;;
61397;SDS011;47267;48.130;-2.040;2023-01-09T15:35:50;3.65;;;1.20;;
61397;SDS011;47267;48.130;-2.040;2023-01-09T15:38:23;3.60;;;1.10;;
61397;SDS011;47267;48.130;-2.040;2023-01-09T15:40:55;2.10;;;0.80;;
61397;SDS011;47267;48.130;-2.040;2023-01-09T15:43:24;1.55;;;0.70;;
61397;SDS011;47267;48.130;-2.040;2023-01-09T15:45:52;3.13;;;0.93;;
61397;SDS011;47267;48.130;-2.040;2023-01-09T15:48:23;4.15;;;1.05;;
61397;SDS011;47267;48.130;-2.040;2023-01-09T15:53:22;2.67;;;1.00;;
61397;SDS011;47267;48.130;-2.040;2023-01-09T15:58:40;2.03;;;0.82;;
61397;SDS011;47267;48.130;-2.040;2023-01-09T16:04:11;3.63;;;0.90;;
61397;SDS011;47267;48.130;-2.040;2023-01-09T16:06:47;2.00;;;0.75;;
61397;SDS011;47267;48.130;-2.040;2023-01-09T16:09:19;2.35;;;0.85;;
61397;SDS011;47267;48.130;-2.040;2023-01-09T16:11:57;2.97;;;0.98;;
61397;SDS011;47267;48.130;-2.040;2023-01-09T16:14:28;3.35;;;1.02;;
61397;SDS011;47267;48.130;-2.040;2023-01-09T16:17:06;3.13;;;0.90;;
61397;SDS011;47267;48.130;-2.040;2023-01-09T16:19:54;2.40;;;0.68;;
61397;SDS011;47267;48.130;-2.040;2023-01-09T16:22:29;6.13;;;1.00;;
61397;SDS011;47267;48.130;-2.040;2023-01-09T16:25:01;2.28;;;0.70;;
61397;SDS011;47267;48.130;-2.040;2023-01-09T16:27:45;2.38;;;0.70;;
61397;SDS011;47267;48.130;-2.040;2023-01-09T16:30:59;2.97;;;0.80;;
61397;SDS011;47267;48.130;-2.040;2023-01-09T16:33:28;2.35;;;0.75;;
61397;SDS011;47267;48.130;-2.040;2023-01-09T16:35:54;2.03;;;0.80;;
61397;SDS011;47267;48.130;-2.040;2023-01-09T16:38:22;3.35;;;1.00;;
61397;SDS011;47267;48.130;-2.040;2023-01-09T16:41:00;3.38;;;1.00;;
61397;SDS011;47267;48.130;-2.040;2023-01-09T16:43:46;3.03;;;0.90;;
61397;SDS011;47267;48.130;-2.040;2023-01-09T16:46:13;2.13;;;0.70;;
61397;SDS011;47267;48.130;-2.040;2023-01-09T16:48:39;3.17;;;0.80;;
61397;SDS011;47267;48.130;-2.040;2023-01-09T16:51:07;5.28;;;0.80;;
61397;SDS011;47267;48.130;-2.040;2023-01-09T16:53:41;2.65;;;0.90;;
61397;SDS011;47267;48.130;-2.040;2023-01-09T16:56:10;2.88;;;0.85;;
61397;SDS011;47267;48.130;-2.040;2023-01-09T16:58:42;2.85;;;0.60;;
61397;SDS011;47267;48.130;-2.040;2023-01-09T17:01:08;3.30;;;0.80;;
61397;SDS011;47267;48.130;-2.040;2023-01-09T17:03:34;2.67;;;0.82;;
61397;SDS011;47267;48.130;-2.040;2023-01-09T17:06:00;6.45;;;0.70;;
61397;SDS011;47267;48.130;-2.040;2023-01-09T17:08:31;4.03;;;0.90;;
61397;SDS011;47267;48.130;-2.040;2023-01-09T17:10:59;2.80;;;0.90;;
61397;SDS011;47267;48.130;-2.040;2023-01-09T17:13:25;4.15;;;0.90;;
61397;SDS011;47267;48.130;-2.040;2023-01-09T17:15:51;3.00;;;0.90;;
61397;SDS011;47267;48.130;-2.040;2023-01-09T17:18:20;3.35;;;0.70;;